Terminal Aerodrome Forecast
Issued by NWS Milwaukee/Sullivan, WI

Home | Current Version | Previous Version | Text Only | Print | Product List | Glossary On
Versions: 1 2 3 4 5 6 7 8 9 10 11 12 13 14 15 16 17 18 19 20 21 22 23 24 25 26 27 28 29 30 31 32 33 34 35 36 37 38 39 40 41 42 43 44 45 46 47 48 49 50
000
FTUS43 KMKX 301724
TAFMSN
TAF
KMSN 301724Z 3018/3118 21004KT P6SM BKN020
     FM302300 19004KT P6SM SCT020
     FM310800 00000KT 5SM BR FEW015
     FM310900 00000KT 2SM BR SCT012
     FM311300 20004KT 6SM BR FEW015
     FM311400 20006KT P6SM FEW020=

USA.gov is the U.S. government's official web portal to all federal, state and local government web resources and services.